Time;durP1;ratioP1;P1;durP2;ratioP2;P2;SDS_P1;SDS_P2;PMS_P1;PMS_P2;Temp;Humidity;BMP_temperature;BMP_pressure;BME280_temperature;BME280_humidity;BME280_pressure;Samples;Min_cycle;Max_cycle;Signal;HPM_P1;HPM_P2
2021/09/18 00:01:14;;;;;;;8.65;6.90;;;13.70;81.50;;;;;;6248456;28;20454;-79
2021/09/18 00:04:15;;;;;;;7.57;6.03;;;13.60;81.70;;;;;;6247834;28;20526;-79
2021/09/18 00:07:17;;;;;;;6.63;5.88;;;13.60;81.50;;;;;;6246696;28;20489;-79
2021/09/18 00:10:19;;;;;;;7.85;6.15;;;13.60;81.40;;;;;;6247483;28;20565;-79
2021/09/18 00:13:22;;;;;;;7.90;6.57;;;13.60;81.10;;;;;;6247277;28;20527;-79
2021/09/18 00:16:24;;;;;;;8.23;6.57;;;13.60;80.80;;;;;;6248405;28;20495;-79
2021/09/18 00:19:26;;;;;;;10.23;6.93;;;13.60;80.40;;;;;;6247949;28;20550;-79
2021/09/18 00:22:28;;;;;;;9.90;7.13;;;13.40;80.60;;;;;;6245744;28;20942;-79
2021/09/18 00:25:30;;;;;;;10.55;7.47;;;13.40;82.00;;;;;;6247152;28;20838;-80
2021/09/18 00:28:33;;;;;;;11.27;7.40;;;13.40;81.30;;;;;;6249437;28;20924;-79
2021/09/18 00:31:35;;;;;;;7.25;6.05;;;13.40;82.20;;;;;;6249556;28;20529;-80
2021/09/18 00:34:37;;;;;;;7.78;6.60;;;13.40;82.00;;;;;;6250373;28;20529;-80
2021/09/18 00:37:39;;;;;;;7.32;6.40;;;13.40;81.70;;;;;;6249615;28;20498;-80
2021/09/18 00:40:41;;;;;;;9.03;7.17;;;13.40;81.90;;;;;;6248835;28;20462;-80
2021/09/18 00:43:49;;;;;;;9.07;6.50;;;13.40;81.50;;;;;;6248733;28;20568;-80
2021/09/18 00:46:51;;;;;;;6.95;6.35;;;13.30;81.50;;;;;;6248270;28;20514;-79
2021/09/18 00:49:53;;;;;;;8.02;6.30;;;13.50;81.10;;;;;;6247444;28;20974;-80
2021/09/18 00:52:55;;;;;;;7.30;6.50;;;13.30;80.80;;;;;;6249818;28;20444;-80
2021/09/18 00:55:57;;;;;;;7.73;6.80;;;13.20;80.70;;;;;;6249908;28;20516;-80
2021/09/18 00:59:00;;;;;;;8.02;7.15;;;13.20;81.00;;;;;;6248156;28;20421;-80
2021/09/18 01:02:02;;;;;;;7.90;6.60;;;13.10;81.40;;;;;;6247809;28;20510;-80
2021/09/18 01:05:05;;;;;;;8.27;6.72;;;13.10;81.50;;;;;;6248415;28;20482;-80
2021/09/18 01:08:06;;;;;;;7.70;6.90;;;13.10;81.20;;;;;;6248808;28;20619;-80
2021/09/18 01:11:08;;;;;;;7.57;6.88;;;13.00;81.00;;;;;;6248649;28;20558;-79
2021/09/18 01:14:11;;;;;;;6.57;5.97;;;13.00;81.30;;;;;;6248118;28;20492;-79
2021/09/18 01:17:14;;;;;;;7.68;6.22;;;13.00;81.40;;;;;;6249731;28;20494;-79
2021/09/18 01:20:16;;;;;;;11.10;6.43;;;12.90;81.20;;;;;;6250165;28;20454;-80
2021/09/18 01:23:20;;;;;;;8.23;6.40;;;12.90;81.30;;;;;;6249509;28;20469;-80
2021/09/18 01:26:35;;;;;;;6.38;5.88;;;12.90;82.20;;;;;;6248839;28;20494;-79
2021/09/18 01:29:36;;;;;;;9.40;6.17;;;12.90;81.00;;;;;;6251119;28;20825;-79
2021/09/18 01:32:38;;;;;;;6.90;6.15;;;12.90;81.10;;;;;;6248111;28;20477;-79
2021/09/18 01:35:42;;;;;;;7.75;5.65;;;12.90;81.20;;;;;;6247689;28;20525;-80
2021/09/18 01:38:45;;;;;;;8.73;6.50;;;12.90;81.20;;;;;;6248322;28;20419;-80
2021/09/18 01:41:48;;;;;;;6.63;5.97;;;12.80;80.40;;;;;;6247729;28;20482;-80
2021/09/18 01:44:50;;;;;;;7.23;6.53;;;12.70;81.60;;;;;;6248272;28;20668;-79
2021/09/18 01:47:54;;;;;;;7.95;7.05;;;12.70;81.40;;;;;;6249306;28;20463;-80
2021/09/18 01:50:58;;;;;;;7.32;6.13;;;12.70;81.40;;;;;;6247849;28;20415;-79
2021/09/18 01:54:02;;;;;;;8.48;6.47;;;12.80;81.40;;;;;;6250060;28;20462;-80
2021/09/18 01:57:07;;;;;;;6.85;6.25;;;12.80;81.50;;;;;;6252763;28;20919;-80
2021/09/18 02:00:11;;;;;;;6.65;6.05;;;12.60;81.30;;;;;;6252193;28;20427;-80
2021/09/18 02:03:13;;;;;;;8.20;5.50;;;12.60;81.40;;;;;;6251563;28;20926;-80
2021/09/18 02:06:16;;;;;;;7.55;6.10;;;12.60;81.00;;;;;;6251760;28;20459;-80
2021/09/18 02:09:19;;;;;;;6.50;5.72;;;12.60;81.00;;;;;;6252029;28;20407;-81
2021/09/18 02:12:21;;;;;;;6.85;5.63;;;12.50;80.90;;;;;;6253787;28;20445;-80
2021/09/18 02:15:25;;;;;;;8.13;6.68;;;12.50;80.90;;;;;;6252501;28;21083;-80
2021/09/18 02:18:26;;;;;;;7.97;7.18;;;12.50;80.90;;;;;;6251500;28;20438;-82
2021/09/18 02:21:28;;;;;;;6.88;6.28;;;12.50;81.50;;;;;;6250396;28;20501;-80
2021/09/18 02:24:32;;;;;;;9.20;6.38;;;12.50;80.80;;;;;;6251089;28;20580;-79
2021/09/18 02:27:33;;;;;;;9.15;6.60;;;12.50;80.80;;;;;;6251264;28;20979;-80
2021/09/18 02:30:37;;;;;;;7.82;6.60;;;12.40;80.50;;;;;;6250047;28;20419;-80
2021/09/18 02:33:39;;;;;;;8.07;7.28;;;12.30;80.70;;;;;;6250480;28;20975;-80
2021/09/18 02:36:41;;;;;;;7.50;6.47;;;12.70;81.10;;;;;;6250751;28;20431;-80
2021/09/18 02:39:44;;;;;;;10.32;8.60;;;12.30;81.10;;;;;;6250346;28;20531;-80
2021/09/18 02:42:49;;;;;;;7.93;7.07;;;12.30;80.90;;;;;;6250244;28;20485;-80
2021/09/18 02:45:50;;;;;;;8.98;6.28;;;12.30;80.90;;;;;;6250016;28;20449;-79
2021/09/18 02:48:52;;;;;;;7.10;6.40;;;12.20;81.20;;;;;;6249325;28;20510;-80
2021/09/18 02:51:54;;;;;;;8.88;7.43;;;12.20;81.20;;;;;;6249805;28;20520;-80
2021/09/18 02:54:57;;;;;;;7.50;6.70;;;12.20;80.90;;;;;;6249468;28;20435;-79
2021/09/18 02:57:59;;;;;;;7.28;6.57;;;12.10;80.90;;;;;;6249242;28;20899;-79
2021/09/18 03:01:01;;;;;;;6.90;6.30;;;12.10;81.40;;;;;;6249090;28;20541;-80
2021/09/18 03:04:03;;;;;;;7.57;6.80;;;12.10;81.40;;;;;;6250911;28;20522;-81
2021/09/18 03:07:05;;;;;;;7.15;6.55;;;12.00;81.10;;;;;;6250325;28;20884;-79
2021/09/18 03:10:10;;;;;;;9.13;7.00;;;12.00;81.20;;;;;;6249968;28;20553;-80
2021/09/18 03:13:12;;;;;;;10.97;7.13;;;12.00;80.70;;;;;;6251163;28;20498;-80
2021/09/18 03:16:14;;;;;;;9.82;7.75;;;11.90;80.50;;;;;;6250697;28;20431;-80
2021/09/18 03:19:15;;;;;;;8.40;6.55;;;12.00;81.10;;;;;;6249801;28;20411;-79
2021/09/18 03:22:17;;;;;;;7.57;6.57;;;11.80;81.50;;;;;;6250487;28;20462;-80
2021/09/18 03:25:21;;;;;;;10.00;7.78;;;11.80;81.30;;;;;;6250209;28;20486;-80
2021/09/18 03:28:23;;;;;;;8.52;6.75;;;11.80;81.00;;;;;;6250015;28;20427;-80
2021/09/18 03:31:24;;;;;;;8.88;6.97;;;11.70;81.30;;;;;;6249527;28;20451;-79
2021/09/18 03:34:26;;;;;;;10.23;6.50;;;11.70;81.60;;;;;;6249619;28;20439;-80
2021/09/18 03:37:28;;;;;;;7.85;6.80;;;11.70;81.40;;;;;;6249063;28;20513;-79
2021/09/18 03:40:31;;;;;;;11.13;7.07;;;11.60;80.70;;;;;;6248958;28;20878;-79
2021/09/18 03:43:33;;;;;;;9.85;6.07;;;11.80;81.10;;;;;;6249055;28;20521;-79
2021/09/18 03:46:35;;;;;;;12.82;7.75;;;11.50;80.90;;;;;;6248612;28;20500;-79
2021/09/18 03:49:37;;;;;;;7.30;6.57;;;11.60;81.30;;;;;;6249201;28;20491;-79
2021/09/18 03:52:39;;;;;;;9.20;6.50;;;11.50;81.50;;;;;;6249061;28;20588;-79
2021/09/18 03:55:42;;;;;;;8.93;7.13;;;11.50;81.40;;;;;;6250318;28;20441;-80
2021/09/18 03:58:44;;;;;;;8.02;7.25;;;11.50;81.60;;;;;;6249189;28;20439;-80
2021/09/18 04:01:46;;;;;;;8.93;6.82;;;11.50;81.60;;;;;;6248589;28;20473;-79
2021/09/18 04:04:48;;;;;;;8.68;6.25;;;11.50;81.70;;;;;;6248365;28;20431;-79
2021/09/18 04:07:49;;;;;;;7.43;6.15;;;11.60;81.50;;;;;;6249766;28;20592;-80
2021/09/18 04:10:53;;;;;;;7.20;6.50;;;11.60;80.70;;;;;;6250142;28;20978;-80
2021/09/18 04:13:54;;;;;;;11.27;6.83;;;11.50;80.60;;;;;;6247672;28;20518;-79
2021/09/18 04:16:56;;;;;;;6.90;6.22;;;11.50;80.70;;;;;;6246960;28;20446;-80
2021/09/18 04:19:58;;;;;;;10.30;7.18;;;11.40;81.20;;;;;;6247471;28;20510;-80
2021/09/18 04:23:00;;;;;;;7.73;6.90;;;11.40;80.90;;;;;;6247542;28;20510;-79
2021/09/18 04:26:03;;;;;;;10.15;7.70;;;11.40;81.50;;;;;;6250164;28;20738;-79
2021/09/18 04:29:05;;;;;;;7.60;6.90;;;11.30;81.30;;;;;;6249417;28;20418;-79
2021/09/18 04:32:07;;;;;;;8.75;6.72;;;11.30;81.50;;;;;;6248185;28;20471;-79
2021/09/18 04:35:09;;;;;;;8.15;6.05;;;11.40;82.00;;;;;;6248088;28;20419;-79
2021/09/18 04:38:11;;;;;;;6.88;6.28;;;11.40;81.40;;;;;;6248340;28;20834;-78
2021/09/18 04:41:15;;;;;;;6.78;6.18;;;11.40;81.10;;;;;;6247734;28;20773;-79
2021/09/18 04:44:17;;;;;;;7.78;6.97;;;11.40;81.00;;;;;;6248547;28;20901;-79
2021/09/18 04:47:19;;;;;;;8.60;6.53;;;11.50;81.20;;;;;;6247785;28;20553;-78
2021/09/18 04:50:21;;;;;;;7.95;7.13;;;11.30;81.00;;;;;;6246796;28;20411;-78
2021/09/18 04:53:26;;;;;;;7.10;6.40;;;11.30;81.40;;;;;;6247079;28;20427;-78
2021/09/18 04:56:29;;;;;;;11.13;7.20;;;11.20;80.80;;;;;;6247893;28;20610;-79
2021/09/18 04:59:31;;;;;;;7.77;6.53;;;11.20;80.30;;;;;;6247222;28;20443;-79
2021/09/18 05:02:33;;;;;;;8.48;7.68;;;11.20;81.20;;;;;;6247034;28;20415;-79
2021/09/18 05:05:34;;;;;;;8.23;7.43;;;11.20;81.00;;;;;;6247188;28;21118;-79
2021/09/18 05:08:36;;;;;;;8.48;7.68;;;11.10;81.80;;;;;;6245282;28;20488;-78
2021/09/18 05:11:40;;;;;;;8.57;7.38;;;11.10;81.30;;;;;;6245832;28;20520;-78
2021/09/18 05:14:42;;;;;;;9.70;6.07;;;11.10;81.10;;;;;;6245675;28;20415;-78
2021/09/18 05:17:44;;;;;;;7.90;6.63;;;11.10;80.90;;;;;;6246434;28;20441;-79
2021/09/18 05:20:46;;;;;;;7.53;6.47;;;11.10;81.40;;;;;;6244832;28;20435;-78
2021/09/18 05:23:49;;;;;;;7.63;6.82;;;11.20;80.70;;;;;;6245537;28;20470;-78
2021/09/18 05:26:52;;;;;;;10.38;6.80;;;11.20;81.40;;;;;;6245091;28;20422;-78
2021/09/18 05:29:55;;;;;;;6.90;6.20;;;11.20;79.90;;;;;;6261059;22;20442;-75
2021/09/18 05:32:56;;;;;;;11.10;6.80;;;11.10;79.80;;;;;;6268157;28;20423;-76
2021/09/18 05:35:58;;;;;;;9.77;7.05;;;11.20;80.60;;;;;;6269613;28;20428;-76
2021/09/18 05:39:00;;;;;;;8.37;6.17;;;11.20;81.80;;;;;;6268169;28;20468;-76
2021/09/18 05:42:04;;;;;;;7.78;6.50;;;11.30;82.20;;;;;;6269110;28;20413;-76
2021/09/18 05:45:07;;;;;;;7.57;5.63;;;11.50;81.80;;;;;;6269213;28;21063;-75
2021/09/18 05:48:09;;;;;;;8.57;6.47;;;11.60;81.30;;;;;;6269643;28;20890;-75
2021/09/18 05:51:11;;;;;;;8.85;6.20;;;11.70;81.50;;;;;;6249531;28;20406;-75
2021/09/18 05:54:12;;;;;;;8.30;6.47;;;11.90;81.20;;;;;;6229888;28;20452;-75
2021/09/18 05:57:16;;;;;;;11.60;5.80;;;12.00;81.10;;;;;;6235526;28;20952;-75
2021/09/18 06:00:18;;;;;;;6.63;5.63;;;12.10;81.40;;;;;;6224682;28;20475;-75
2021/09/18 06:03:20;;;;;;;8.45;6.03;;;12.30;79.60;;;;;;6218966;28;20515;-75
2021/09/18 06:06:22;;;;;;;6.65;6.05;;;12.40;78.80;;;;;;6218898;28;20480;-75
2021/09/18 06:09:24;;;;;;;6.65;6.00;;;12.40;78.80;;;;;;6218870;28;20490;-76
2021/09/18 06:12:27;;;;;;;7.90;6.13;;;12.50;78.60;;;;;;6219196;28;20574;-76
2021/09/18 06:15:29;;;;;;;7.10;5.85;;;12.70;78.00;;;;;;6220226;28;20442;-76
2021/09/18 06:18:31;;;;;;;7.05;5.93;;;12.90;78.30;;;;;;6218566;28;20455;-76
2021/09/18 06:21:33;;;;;;;6.07;5.57;;;13.10;77.30;;;;;;6218922;28;20836;-75
2021/09/18 06:24:35;;;;;;;7.18;6.10;;;13.20;77.40;;;;;;6222453;28;20463;-75
2021/09/18 06:27:38;;;;;;;6.15;5.53;;;13.40;77.20;;;;;;6236119;28;20442;-75
2021/09/18 06:30:41;;;;;;;5.72;5.13;;;13.60;76.70;;;;;;6243078;28;20415;-75
2021/09/18 06:33:43;;;;;;;9.00;5.82;;;13.80;76.90;;;;;;6243748;28;20496;-76
2021/09/18 06:36:44;;;;;;;8.00;6.15;;;14.00;76.70;;;;;;6243263;28;20427;-75
2021/09/18 06:39:46;;;;;;;6.70;6.05;;;14.10;76.50;;;;;;6244220;28;20910;-76
2021/09/18 06:42:49;;;;;;;7.45;5.25;;;14.30;76.20;;;;;;6247559;28;20791;-75
2021/09/18 06:45:52;;;;;;;7.13;6.03;;;14.40;75.70;;;;;;6247493;28;20920;-75
2021/09/18 06:48:54;;;;;;;5.88;5.32;;;14.60;75.50;;;;;;6247320;28;20404;-75
2021/09/18 06:51:55;;;;;;;8.77;6.32;;;14.80;75.40;;;;;;6247836;28;20521;-75
2021/09/18 06:54:57;;;;;;;5.78;5.28;;;15.00;75.00;;;;;;6243543;28;20506;-75
2021/09/18 06:58:01;;;;;;;6.13;5.55;;;15.20;74.40;;;;;;6228696;28;20464;-76
2021/09/18 07:01:03;;;;;;;6.43;5.75;;;15.50;73.40;;;;;;6222440;28;20424;-76
2021/09/18 07:04:05;;;;;;;6.65;4.93;;;15.80;72.60;;;;;;6222878;28;20529;-75
2021/09/18 07:07:06;;;;;;;6.88;5.13;;;16.10;71.70;;;;;;6222658;28;20492;-75
2021/09/18 07:10:09;;;;;;;8.30;4.95;;;16.40;71.10;;;;;;6221836;28;20512;-75
2021/09/18 07:13:13;;;;;;;6.18;5.57;;;16.80;70.40;;;;;;6222691;28;20416;-75
2021/09/18 07:16:14;;;;;;;6.43;5.33;;;17.10;69.80;;;;;;6222834;28;20522;-76
2021/09/18 07:19:16;;;;;;;5.57;5.07;;;17.50;68.80;;;;;;6221559;28;20452;-76
2021/09/18 07:22:18;;;;;;;7.00;5.63;;;17.70;67.50;;;;;;6221951;28;21183;-75
2021/09/18 07:25:20;;;;;;;6.28;5.70;;;18.00;67.20;;;;;;6230364;28;20415;-76
2021/09/18 07:28:24;;;;;;;6.25;5.00;;;18.20;66.50;;;;;;6240533;28;20482;-76
2021/09/18 07:31:26;;;;;;;4.93;4.32;;;18.50;65.50;;;;;;6246156;28;20423;-76
2021/09/18 07:34:28;;;;;;;7.88;4.20;;;18.80;65.00;;;;;;6246628;28;20775;-76
2021/09/18 07:37:29;;;;;;;6.53;4.70;;;19.00;64.50;;;;;;6246488;28;20498;-76
2021/09/18 07:40:32;;;;;;;5.45;4.60;;;19.30;63.60;;;;;;6246275;28;20505;-76
2021/09/18 07:43:35;;;;;;;4.35;3.95;;;19.50;63.60;;;;;;6246627;28;20430;-76
2021/09/18 07:46:37;;;;;;;6.40;4.07;;;19.70;62.40;;;;;;6246074;28;20550;-76
2021/09/18 07:49:39;;;;;;;4.32;3.55;;;19.90;61.80;;;;;;6245895;28;20472;-76
2021/09/18 07:52:41;;;;;;;4.30;3.90;;;20.10;60.50;;;;;;6245438;28;20500;-76
2021/09/18 07:55:43;;;;;;;4.03;3.70;;;20.30;60.20;;;;;;6242365;28;20914;-75
2021/09/18 07:58:46;;;;;;;4.75;3.63;;;20.50;60.20;;;;;;6226850;28;20574;-76
2021/09/18 08:01:48;;;;;;;5.72;3.47;;;20.60;59.00;;;;;;6221251;28;20555;-76
2021/09/18 08:04:50;;;;;;;3.58;3.28;;;20.80;58.30;;;;;;6221129;28;20910;-76
2021/09/18 08:07:51;;;;;;;5.35;3.33;;;20.80;58.20;;;;;;6221453;28;20429;-76
2021/09/18 08:10:53;;;;;;;6.32;3.08;;;20.80;58.00;;;;;;6220809;28;20421;-76
2021/09/18 08:13:57;;;;;;;5.93;2.83;;;21.00;57.60;;;;;;6221178;28;20890;-76
2021/09/18 08:16:59;;;;;;;6.33;2.83;;;21.20;56.70;;;;;;6220750;28;20440;-76
2021/09/18 08:20:01;;;;;;;5.90;2.67;;;21.50;56.80;;;;;;6221023;28;20471;-76
2021/09/18 08:23:03;;;;;;;5.18;3.50;;;21.60;56.00;;;;;;6220938;28;20503;-75
2021/09/18 08:26:05;;;;;;;5.75;3.40;;;21.70;55.70;;;;;;6228824;28;20427;-76
2021/09/18 08:29:08;;;;;;;5.78;3.50;;;21.80;55.70;;;;;;6244317;28;20654;-76
2021/09/18 08:32:10;;;;;;;5.05;3.35;;;22.00;55.70;;;;;;6245213;28;20853;-76
2021/09/18 08:35:13;;;;;;;5.95;4.00;;;22.20;55.80;;;;;;6244865;28;20501;-76
2021/09/18 08:38:15;;;;;;;6.18;4.65;;;22.40;56.30;;;;;;6244900;28;20419;-76
2021/09/18 08:41:17;;;;;;;5.20;3.80;;;22.60;55.80;;;;;;6244727;28;20540;-76
2021/09/18 08:44:20;;;;;;;4.15;3.50;;;22.90;53.40;;;;;;6244961;28;20486;-76
2021/09/18 08:47:23;;;;;;;6.47;3.63;;;22.90;53.00;;;;;;6244690;28;20423;-76
2021/09/18 08:50:25;;;;;;;4.65;3.17;;;23.10;53.10;;;;;;6244419;28;20486;-76
2021/09/18 08:53:27;;;;;;;3.85;3.42;;;23.30;53.10;;;;;;6244308;28;20892;-75
2021/09/18 08:56:29;;;;;;;5.25;3.35;;;23.50;52.00;;;;;;6233969;28;20441;-75
2021/09/18 08:59:36;;;;;;;3.45;2.90;;;23.70;51.80;;;;;;6236833;28;20557;-76
2021/09/18 09:02:40;;;;;;;5.03;3.40;;;23.80;51.30;;;;;;6244256;28;20423;-77
2021/09/18 09:05:44;;;;;;;3.67;3.33;;;24.00;50.70;;;;;;6244249;28;20896;-76
2021/09/18 09:08:56;;;;;;;5.07;3.03;;;24.20;50.70;;;;;;6244431;28;20548;-76
2021/09/18 09:11:58;;;;;;;4.82;3.00;;;24.20;50.30;;;;;;6244170;28;20517;-76
2021/09/18 09:15:03;;;;;;;5.00;3.65;;;24.30;50.70;;;;;;6244325;28;20419;-76
2021/09/18 09:18:16;;;;;;;2.60;2.40;;;24.50;50.20;;;;;;6244196;28;20419;-76
2021/09/18 09:21:20;;;;;;;2.80;2.50;;;24.60;48.40;;;;;;6243764;28;20502;-76
2021/09/18 09:24:24;;;;;;;2.77;2.57;;;24.30;48.90;;;;;;6244366;28;20919;-76
2021/09/18 09:27:27;;;;;;;2.95;2.33;;;24.30;49.10;;;;;;6236096;28;20904;-76
2021/09/18 09:30:33;;;;;;;2.90;2.60;;;24.00;49.10;;;;;;6243353;28;20555;-75
2021/09/18 09:33:35;;;;;;;2.70;2.40;;;24.10;49.40;;;;;;6244024;28;20411;-75
2021/09/18 09:36:40;;;;;;;2.53;2.33;;;24.30;49.20;;;;;;6243947;28;20816;-76
2021/09/18 09:39:52;;;;;;;3.65;2.38;;;24.30;49.50;;;;;;6244175;28;20426;-76
2021/09/18 09:42:57;;;;;;;5.57;3.25;;;24.10;49.00;;;;;;6243826;28;20415;-76
2021/09/18 09:46:00;;;;;;;4.40;2.63;;;24.00;48.60;;;;;;6243817;28;20464;-76
2021/09/18 09:49:05;;;;;;;2.90;2.30;;;24.00;49.40;;;;;;6243271;28;20827;-76
2021/09/18 09:52:18;;;;;;;2.97;2.27;;;24.30;49.20;;;;;;6243665;28;20438;-75
2021/09/18 09:55:20;;;;;;;5.43;2.40;;;24.40;48.20;;;;;;6241918;28;20415;-75
2021/09/18 09:58:22;;;;;;;4.43;2.20;;;24.50;48.80;;;;;;6232528;28;20419;-76
2021/09/18 10:01:28;;;;;;;4.35;2.15;;;24.80;46.90;;;;;;6238556;28;20510;-76
2021/09/18 10:04:29;;;;;;;2.75;2.55;;;25.10;46.10;;;;;;6244243;28;20545;-76
2021/09/18 10:07:32;;;;;;;4.88;2.58;;;25.10;45.80;;;;;;6243308;28;20447;-76
2021/09/18 10:10:34;;;;;;;2.97;2.45;;;25.10;46.30;;;;;;6243032;28;20532;-76
2021/09/18 10:13:37;;;;;;;2.83;2.25;;;25.30;45.50;;;;;;6243481;28;20414;-76
2021/09/18 10:16:41;;;;;;;3.25;2.25;;;25.40;46.10;;;;;;6247462;28;20435;-76
2021/09/18 10:20:00;;;;;;;2.83;2.30;;;25.80;45.30;;;;;;6247934;28;20423;-76
2021/09/18 10:23:17;;;;;;;2.55;2.13;;;26.30;44.10;;;;;;6248126;28;20916;-76
2021/09/18 10:26:19;;;;;;;3.00;2.70;;;26.50;44.50;;;;;;6239546;28;20416;-76
2021/09/18 10:29:32;;;;;;;3.40;1.97;;;26.70;42.00;;;;;;6248342;28;20411;-76
2021/09/18 10:32:45;;;;;;;2.53;2.20;;;26.40;43.00;;;;;;6247592;28;20774;-76
2021/09/18 10:35:55;;;;;;;3.37;2.67;;;26.10;43.30;;;;;;6248368;28;20557;-76
2021/09/18 10:39:08;;;;;;;3.10;2.50;;;25.70;44.70;;;;;;6247767;28;20423;-75
2021/09/18 10:42:10;;;;;;;2.65;2.45;;;25.40;45.00;;;;;;6247470;28;20446;-76
2021/09/18 10:45:15;;;;;;;2.75;2.55;;;25.60;46.00;;;;;;6247698;28;20415;-76
2021/09/18 10:48:41;;;;;;;2.60;2.08;;;25.80;44.40;;;;;;6248180;28;20438;-76
2021/09/18 10:51:42;;;;;;;6.22;2.53;;;26.10;43.60;;;;;;6247493;28;20913;-76
2021/09/18 10:55:12;;;;;;;2.85;1.80;;;26.20;43.10;;;;;;6247099;28;20930;-75
2021/09/18 10:58:14;;;;;;;4.55;1.98;;;26.30;42.30;;;;;;6239445;28;20566;-75
2021/09/18 11:01:22;;;;;;;5.55;2.35;;;26.40;42.90;;;;;;6235128;28;20446;-76
2021/09/18 11:04:39;;;;;;;3.00;2.70;;;26.90;42.30;;;;;;6247614;28;20931;-76
2021/09/18 11:07:46;;;;;;;3.13;1.92;;;27.40;41.50;;;;;;6247548;28;20422;-76
2021/09/18 11:10:54;;;;;;;3.70;1.80;;;27.20;41.00;;;;;;6246254;28;20842;-76
2021/09/18 11:13:57;;;;;;;4.78;1.67;;;27.30;39.50;;;;;;6247042;28;20419;-76
2021/09/18 11:16:59;;;;;;;1.93;1.80;;;27.00;40.30;;;;;;6246736;28;20414;-76
2021/09/18 11:20:14;;;;;;;2.53;1.40;;;27.00;38.50;;;;;;6247336;28;20457;-76
2021/09/18 11:23:32;;;;;;;1.35;1.20;;;27.60;38.20;;;;;;6246669;28;20958;-75
2021/09/18 11:26:44;;;;;;;3.00;1.40;;;27.70;36.90;;;;;;6238971;28;20426;-77
2021/09/18 11:29:51;;;;;;;1.83;1.45;;;27.80;35.20;;;;;;6249244;28;20494;-77
2021/09/18 11:32:53;;;;;;;1.73;1.30;;;27.70;36.40;;;;;;6267215;22;20490;-78
2021/09/18 11:35:58;;;;;;;1.75;1.65;;;27.60;37.10;;;;;;6254331;28;20979;-78
2021/09/18 11:39:00;;;;;;;1.10;0.95;;;27.80;36.30;;;;;;6253413;28;20499;-77
2021/09/18 11:42:19;;;;;;;2.03;1.13;;;27.50;34.10;;;;;;6253511;28;20411;-78
2021/09/18 11:45:23;;;;;;;1.25;1.13;;;27.30;37.90;;;;;;6251183;28;20949;-78
2021/09/18 11:48:25;;;;;;;1.52;1.23;;;27.40;36.00;;;;;;6269996;28;20452;-77
2021/09/18 11:51:29;;;;;;;1.60;1.50;;;27.10;36.50;;;;;;6252850;28;20415;-77
2021/09/18 11:54:32;;;;;;;3.75;1.35;;;26.90;36.90;;;;;;6256926;28;20429;-79
2021/09/18 11:57:34;;;;;;;1.58;1.08;;;26.90;37.20;;;;;;6270036;28;20446;-79
2021/09/18 12:00:38;;;;;;;1.73;1.40;;;27.00;36.30;;;;;;6259694;28;20845;-78
2021/09/18 12:03:43;;;;;;;1.60;1.20;;;26.90;36.30;;;;;;6232042;28;20427;-77
2021/09/18 12:06:48;;;;;;;1.97;1.77;;;26.90;35.90;;;;;;6228700;28;20471;-78
2021/09/18 12:09:50;;;;;;;1.58;1.30;;;27.10;36.80;;;;;;6229311;28;20480;-78
2021/09/18 12:12:57;;;;;;;1.55;1.30;;;27.20;36.70;;;;;;6229100;28;20500;-77
2021/09/18 12:16:00;;;;;;;1.17;1.07;;;27.30;36.60;;;;;;6228386;28;20956;-77
2021/09/18 12:19:02;;;;;;;1.40;1.23;;;27.40;34.90;;;;;;6227302;28;20417;-78
2021/09/18 12:22:06;;;;;;;1.70;1.47;;;27.20;34.40;;;;;;6228232;28;20427;-78
2021/09/18 12:25:09;;;;;;;3.75;1.50;;;27.20;35.30;;;;;;6243051;28;20447;-77
2021/09/18 12:28:11;;;;;;;1.13;1.02;;;27.40;35.90;;;;;;6261484;28;20986;-78
2021/09/18 12:31:17;;;;;;;3.42;1.95;;;27.60;35.30;;;;;;6276040;28;20417;-79
2021/09/18 12:34:20;;;;;;;59.08;51.33;;;28.00;36.30;;;;;;6277114;28;20589;-78
2021/09/18 12:37:29;;;;;;;1.75;1.50;;;28.40;35.50;;;;;;6277184;28;20482;-79
2021/09/18 12:40:46;;;;;;;4.53;4.13;;;28.20;33.80;;;;;;6277589;28;20464;-78
2021/09/18 12:43:59;;;;;;;1.83;1.60;;;27.80;34.90;;;;;;6276241;28;20748;-79
2021/09/18 12:47:00;;;;;;;1.83;1.60;;;27.80;34.60;;;;;;6275458;28;20433;-77
2021/09/18 12:50:15;;;;;;;2.90;1.52;;;27.60;35.90;;;;;;6265850;28;20868;-77
2021/09/18 12:53:24;;;;;;;3.72;3.40;;;27.70;36.30;;;;;;6259136;28;20415;-79
2021/09/18 12:56:34;;;;;;;8.23;7.35;;;27.80;37.10;;;;;;6264437;28;20492;-79
2021/09/18 12:59:41;;;;;;;2.28;2.05;;;28.00;36.40;;;;;;6260533;28;20545;-78
2021/09/18 13:02:44;;;;;;;4.25;3.85;;;28.20;34.60;;;;;;6240638;28;21036;-77
2021/09/18 13:05:56;;;;;;;2.07;1.87;;;28.00;34.60;;;;;;6226271;28;20575;-79
2021/09/18 13:09:02;;;;;;;5.65;2.55;;;27.90;33.90;;;;;;6226015;28;20492;-78
2021/09/18 13:12:10;;;;;;;23.50;20.90;;;27.50;35.10;;;;;;6227715;28;20452;-78
2021/09/18 13:15:12;;;;;;;2.97;2.05;;;27.50;36.30;;;;;;6227089;28;20457;-78
2021/09/18 13:18:21;;;;;;;2.15;1.80;;;27.50;36.10;;;;;;6228254;28;20472;-78
2021/09/18 13:21:23;;;;;;;2.25;1.60;;;27.60;35.90;;;;;;6226922;28;20471;-78
2021/09/18 13:24:26;;;;;;;3.70;1.80;;;27.80;35.60;;;;;;6232171;28;20435;-78
2021/09/18 13:27:29;;;;;;;1.95;1.83;;;28.10;36.90;;;;;;6267360;28;21090;-79
2021/09/18 13:30:31;;;;;;;3.28;2.28;;;27.90;37.40;;;;;;6274429;28;20414;-80
2021/09/18 13:33:33;;;;;;;2.17;1.83;;;27.90;37.60;;;;;;6276364;28;20467;-80
2021/09/18 13:36:35;;;;;;;2.50;2.30;;;27.90;36.50;;;;;;6275941;28;20444;-79
2021/09/18 13:39:39;;;;;;;2.50;2.22;;;27.60;37.20;;;;;;6276067;28;20464;-78
2021/09/18 13:42:41;;;;;;;3.30;2.50;;;27.40;37.40;;;;;;6276014;28;20425;-79
2021/09/18 13:45:43;;;;;;;1.92;1.83;;;27.50;37.80;;;;;;6275435;28;20490;-80
2021/09/18 13:48:45;;;;;;;2.35;2.00;;;27.50;38.30;;;;;;6276971;28;20517;-79
2021/09/18 13:51:47;;;;;;;1.95;1.80;;;27.50;39.40;;;;;;6282083;28;20523;-80
2021/09/18 13:54:50;;;;;;;2.95;1.90;;;27.50;38.20;;;;;;6280984;28;20425;-78
2021/09/18 13:57:52;;;;;;;2.80;2.13;;;27.70;37.40;;;;;;6273125;28;20437;-79
2021/09/18 14:00:54;;;;;;;1.65;1.55;;;27.60;37.10;;;;;;6280896;28;20822;-80
2021/09/18 14:03:58;;;;;;;2.63;2.37;;;27.50;36.00;;;;;;6252773;28;20445;-80
2021/09/18 14:07:00;;;;;;;2.90;2.35;;;27.30;37.60;;;;;;6255931;28;20415;-79
2021/09/18 14:10:03;;;;;;;2.83;2.38;;;27.30;38.10;;;;;;6256953;28;20415;-79
2021/09/18 14:13:05;;;;;;;3.77;2.63;;;27.30;38.90;;;;;;6257424;28;20852;-80
2021/09/18 14:16:07;;;;;;;3.43;2.80;;;27.30;37.50;;;;;;6256222;28;20485;-79
2021/09/18 14:19:09;;;;;;;3.40;2.07;;;27.20;37.90;;;;;;6254898;28;20557;-79
2021/09/18 14:22:10;;;;;;;2.53;1.97;;;27.10;38.70;;;;;;6255631;28;20649;-79
2021/09/18 14:25:14;;;;;;;2.13;1.95;;;26.80;37.80;;;;;;6263788;28;20424;-79
2021/09/18 14:28:16;;;;;;;4.22;2.63;;;26.70;38.80;;;;;;6273149;28;20504;-79
2021/09/18 14:31:18;;;;;;;3.28;2.10;;;26.80;38.00;;;;;;6278891;28;20548;-79
2021/09/18 14:34:20;;;;;;;4.30;2.10;;;26.90;37.50;;;;;;6279016;28;20441;-78
2021/09/18 14:37:22;;;;;;;2.97;2.10;;;27.10;37.20;;;;;;6280037;28;20433;-79
2021/09/18 14:40:25;;;;;;;2.67;2.33;;;27.20;37.30;;;;;;6279923;28;20425;-78
2021/09/18 14:43:27;;;;;;;2.10;1.95;;;27.50;36.90;;;;;;6279332;28;20432;-79
2021/09/18 14:46:29;;;;;;;1.92;1.80;;;27.50;36.10;;;;;;6279731;28;20437;-79
2021/09/18 14:49:31;;;;;;;2.20;2.00;;;27.20;36.90;;;;;;6279375;28;20497;-79
2021/09/18 14:52:33;;;;;;;2.33;1.80;;;27.10;37.60;;;;;;6279162;28;20460;-79
2021/09/18 14:55:36;;;;;;;2.43;1.93;;;27.30;37.20;;;;;;6275891;28;20514;-79
2021/09/18 14:58:37;;;;;;;3.17;2.17;;;27.20;37.80;;;;;;6274582;28;20526;-79
2021/09/18 15:01:40;;;;;;;3.90;2.65;;;27.00;37.00;;;;;;6278398;28;20507;-79
2021/09/18 15:04:42;;;;;;;2.17;1.98;;;26.70;37.40;;;;;;6251461;28;20963;-78
2021/09/18 15:07:44;;;;;;;2.40;2.10;;;26.40;37.50;;;;;;6253672;28;20552;-77
2021/09/18 15:10:47;;;;;;;2.70;2.20;;;26.20;39.10;;;;;;6252343;28;20938;-78
2021/09/18 15:13:49;;;;;;;2.38;2.17;;;26.10;38.30;;;;;;6253282;28;20597;-79
2021/09/18 15:16:51;;;;;;;2.30;2.10;;;26.00;38.70;;;;;;6253658;28;20517;-78
2021/09/18 15:19:53;;;;;;;2.38;2.17;;;25.90;39.90;;;;;;6252823;28;20449;-79
2021/09/18 15:23:02;;;;;;;3.67;1.90;;;25.90;40.20;;;;;;6252139;28;21019;-78
2021/09/18 15:26:05;;;;;;;2.00;1.90;;;25.80;41.20;;;;;;6261674;28;20492;-78
2021/09/18 15:29:07;;;;;;;2.50;2.17;;;25.60;40.70;;;;;;6277274;28;20417;-78
2021/09/18 15:32:09;;;;;;;2.80;2.42;;;25.40;40.50;;;;;;6277262;28;20441;-78
2021/09/18 15:35:12;;;;;;;2.63;2.40;;;25.30;40.90;;;;;;6277943;28;20507;-78
2021/09/18 15:38:15;;;;;;;3.25;2.40;;;25.10;42.40;;;;;;6277889;28;20590;-79
2021/09/18 15:41:21;;;;;;;3.63;2.10;;;24.90;42.10;;;;;;6277336;28;20551;-78
2021/09/18 15:44:23;;;;;;;3.35;2.15;;;24.80;42.60;;;;;;6278091;28;20853;-78
2021/09/18 15:47:25;;;;;;;2.42;2.22;;;24.80;41.90;;;;;;6276958;28;20414;-78
2021/09/18 15:50:28;;;;;;;3.30;2.20;;;24.60;42.60;;;;;;6277239;28;20508;-79
2021/09/18 15:53:29;;;;;;;2.72;2.53;;;24.60;42.40;;;;;;6277383;28;20619;-79